createdAt,value
2022-09-02T00:01:52.237Z,15.04
2022-09-02T00:06:54.798Z,15.18
2022-09-02T00:11:56.754Z,15.12
2022-09-02T00:16:58.686Z,14.86
2022-09-02T00:22:01.657Z,14.84
2022-09-02T00:27:03.430Z,14.77
2022-09-02T00:32:05.113Z,14.62
2022-09-02T00:37:06.769Z,14.66
2022-09-02T00:42:08.614Z,14.82
2022-09-02T00:47:10.165Z,14.70
2022-09-02T00:52:22.542Z,14.62
2022-09-02T00:57:28.866Z,14.26
2022-09-02T01:02:31.486Z,14.13
2022-09-02T01:07:35.422Z,14.26
2022-09-02T01:12:37.823Z,14.17
2022-09-02T01:17:45.659Z,13.88
2022-09-02T01:22:47.808Z,14.17
2022-09-02T01:27:50.479Z,13.98
2022-09-02T01:32:52.549Z,13.89
2022-09-02T01:37:58.571Z,13.99
2022-09-02T01:43:11.509Z,13.88
2022-09-02T01:48:14.415Z,13.80
2022-09-02T01:53:23.805Z,13.68
2022-09-02T01:58:25.344Z,13.55
2022-09-02T02:03:26.827Z,13.66
2022-09-02T02:08:30.240Z,13.57
2022-09-02T02:13:32.078Z,13.57
2022-09-02T02:18:33.795Z,13.71
2022-09-02T02:23:35.256Z,13.72
2022-09-02T02:28:37.389Z,13.64
2022-09-02T02:33:38.868Z,13.46
2022-09-02T02:38:40.920Z,13.38
2022-09-02T02:43:43.360Z,13.44
2022-09-02T02:48:45.112Z,13.53
2022-09-02T02:53:46.580Z,13.38
2022-09-02T02:58:48.292Z,13.22
2022-09-02T03:03:49.856Z,13.25
2022-09-02T03:08:51.760Z,13.27
2022-09-02T03:13:53.251Z,13.13
2022-09-02T03:18:55.448Z,13.31
2022-09-02T03:23:57.892Z,13.37
2022-09-02T03:28:59.616Z,13.29
2022-09-02T03:34:01.128Z,13.16
2022-09-02T03:39:05.160Z,13.17
2022-09-02T03:44:11.504Z,13.00
2022-09-02T03:49:13.095Z,12.85
2022-09-02T03:54:14.552Z,12.74
2022-09-02T03:59:16.433Z,12.83
2022-09-02T04:04:22.754Z,12.68
2022-09-02T04:09:27.374Z,12.72
2022-09-02T04:14:28.815Z,12.74
2022-09-02T04:20:07.930Z,12.55
2022-09-02T04:25:10.129Z,12.51
2022-09-02T04:30:12.046Z,12.66
2022-09-02T04:35:13.697Z,12.54
2022-09-02T04:40:15.497Z,12.53
2022-09-02T04:45:17.134Z,12.59
2022-09-02T04:50:18.698Z,12.46
2022-09-02T04:55:20.122Z,12.54
2022-09-02T05:00:21.952Z,12.61
2022-09-02T05:05:23.466Z,12.63
2022-09-02T05:10:24.995Z,12.83
2022-09-02T05:15:26.702Z,12.62
2022-09-02T05:20:28.194Z,12.62
2022-09-02T05:25:29.736Z,12.78
2022-09-02T05:30:31.398Z,13.39
2022-09-02T05:35:33.307Z,13.75
2022-09-02T05:40:38.895Z,14.63
2022-09-02T05:45:40.470Z,15.65
2022-09-02T05:50:41.946Z,17.45
2022-09-02T05:55:43.436Z,20.07
2022-09-02T06:00:44.880Z,20.63
2022-09-02T06:05:57.970Z,21.39
2022-09-02T06:11:03.855Z,21.34
2022-09-02T06:16:06.519Z,22.70
2022-09-02T06:21:08.087Z,23.76
2022-09-02T06:26:12.347Z,25.70
2022-09-02T06:31:17.134Z,26.48
2022-09-02T06:36:19.168Z,27.93
2022-09-02T06:41:23.539Z,28.45
2022-09-02T06:46:28.500Z,29.12
2022-09-02T06:51:33.141Z,29.86
2022-09-02T06:56:35.379Z,31.72
2022-09-02T07:01:37.898Z,31.35
2022-09-02T07:06:45.779Z,31.94
2022-09-02T07:11:49.079Z,32.84
2022-09-02T07:16:52.524Z,32.41
2022-09-02T07:21:54.066Z,32.99
2022-09-02T07:26:55.849Z,33.68
2022-09-02T07:31:58.347Z,33.01
2022-09-02T07:37:04.188Z,26.97
2022-09-02T07:42:07.856Z,24.65
2022-09-02T07:47:09.371Z,27.49
2022-09-02T07:52:10.839Z,30.02
2022-09-02T07:57:12.315Z,27.52
2022-09-02T08:02:14.307Z,29.65
2022-09-02T08:07:15.783Z,29.15
2022-09-02T08:12:20.136Z,30.12
2022-09-02T08:17:23.619Z,26.93
2022-09-02T08:22:26.045Z,24.83
2022-09-02T08:27:27.547Z,24.04
2022-09-02T08:32:29.479Z,24.14
2022-09-02T08:37:32.649Z,23.93
2022-09-02T08:42:42.046Z,23.85
2022-09-02T08:47:48.880Z,24.06
2022-09-02T08:53:18.286Z,24.41
2022-09-02T08:58:23.696Z,24.19
2022-09-02T09:03:33.345Z,23.77
2022-09-02T09:08:54.230Z,23.87
2022-09-02T09:14:17.550Z,24.40
2022-09-02T09:19:30.965Z,24.55
2022-09-02T09:24:32.371Z,25.08
2022-09-02T09:29:33.856Z,24.88
2022-09-02T09:35:08.811Z,24.44
2022-09-02T09:40:19.487Z,24.47
2022-09-02T09:45:34.557Z,24.21
2022-09-02T09:50:36.386Z,24.94
2022-09-02T09:56:00.407Z,25.09
2022-09-02T10:01:24.064Z,25.32
2022-09-02T10:06:45.918Z,25.60
2022-09-02T10:12:07.925Z,25.68
2022-09-02T10:17:15.126Z,25.44
2022-09-02T10:22:59.919Z,25.13
2022-09-02T10:28:20.316Z,25.60
2022-09-02T10:33:27.779Z,24.63
2022-09-02T10:38:35.043Z,24.69
2022-09-02T10:43:36.439Z,24.88
2022-09-02T10:48:40.659Z,25.21
2022-09-02T10:53:51.213Z,24.70
2022-09-02T10:59:18.254Z,24.46
2022-09-02T11:04:33.415Z,24.60
2022-09-02T11:09:48.899Z,24.51
2022-09-02T11:15:09.380Z,24.31
2022-09-02T11:20:17.070Z,24.56
2022-09-02T11:25:39.564Z,24.49
2022-09-02T11:35:59.577Z,24.46
2022-09-02T11:41:37.821Z,24.45
2022-09-02T11:47:25.225Z,24.43
2022-09-02T11:52:44.347Z,24.17
2022-09-02T11:57:52.873Z,24.12
2022-09-02T12:03:28.555Z,24.04
2022-09-02T12:08:33.155Z,23.71
2022-09-02T12:13:39.457Z,23.86
2022-09-02T12:18:46.199Z,23.88
2022-09-02T12:23:53.429Z,23.90
2022-09-02T12:29:20.518Z,23.85
2022-09-02T12:34:22.079Z,24.10
2022-09-02T12:39:23.501Z,23.73
2022-09-02T12:44:59.018Z,23.72
2022-09-02T12:50:05.996Z,23.66
2022-09-02T12:55:31.907Z,23.68
2022-09-02T13:00:51.523Z,23.80
2022-09-02T13:06:04.427Z,23.72
2022-09-02T13:11:15.042Z,23.46
2022-09-02T13:16:37.688Z,23.47
2022-09-02T13:21:55.650Z,23.74
2022-09-02T13:27:11.046Z,23.61
2022-09-02T13:32:20.978Z,23.52
2022-09-02T13:37:59.071Z,23.58
2022-09-02T13:43:02.929Z,23.64
2022-09-02T13:48:17.105Z,23.60
2022-09-02T13:58:56.365Z,23.56
2022-09-02T14:03:59.966Z,23.62
2022-09-02T14:09:05.400Z,23.37
2022-09-02T14:14:07.274Z,23.48
2022-09-02T14:19:10.187Z,23.58
2022-09-02T14:24:14.321Z,23.23
2022-09-02T14:29:19.467Z,23.31
2022-09-02T14:34:38.590Z,23.37
2022-09-02T14:40:00.387Z,23.42
2022-09-02T14:45:02.019Z,23.23
2022-09-02T14:50:03.748Z,23.39
2022-09-02T14:55:05.830Z,23.29
2022-09-02T15:00:09.239Z,23.10
2022-09-02T15:05:12.826Z,23.26
2022-09-02T15:10:14.456Z,23.14
2022-09-02T15:15:16.132Z,23.05
2022-09-02T15:20:17.633Z,23.09
2022-09-02T15:25:20.235Z,23.02
2022-09-02T15:30:21.753Z,22.97
2022-09-02T15:35:23.198Z,22.76
2022-09-02T15:40:24.693Z,22.85
2022-09-02T15:45:26.663Z,22.98
2022-09-02T15:50:31.699Z,22.58
2022-09-02T15:55:33.525Z,22.62
2022-09-02T16:00:35.017Z,22.66
2022-09-02T16:05:36.491Z,22.81
2022-09-02T16:10:37.984Z,22.84
2022-09-02T16:15:39.480Z,22.44
2022-09-02T16:20:40.923Z,22.90
2022-09-02T16:25:42.422Z,22.41
2022-09-02T16:30:46.398Z,22.49
2022-09-02T16:35:48.239Z,22.64
2022-09-02T16:40:54.726Z,22.86
2022-09-02T16:45:58.454Z,22.72
2022-09-02T16:51:04.909Z,22.39
2022-09-02T16:56:06.631Z,22.62
2022-09-02T17:01:11.016Z,22.47
2022-09-02T17:06:12.687Z,22.23
2022-09-02T17:11:26.535Z,22.08
2022-09-02T17:16:31.763Z,22.20
2022-09-02T17:21:40.740Z,22.18
2022-09-02T17:26:45.541Z,21.91
2022-09-02T17:31:47.201Z,21.85
2022-09-02T17:36:48.624Z,21.69
2022-09-02T17:41:50.138Z,21.54
2022-09-02T17:46:52.219Z,21.42
2022-09-02T17:51:53.764Z,21.16
2022-09-02T17:57:22.475Z,21.13
2022-09-02T18:02:36.155Z,20.93
2022-09-02T18:07:55.463Z,20.75
2022-09-02T18:12:57.470Z,20.49
2022-09-02T18:17:58.890Z,20.24
2022-09-02T18:23:12.846Z,20.02
2022-09-02T18:28:55.200Z,20.00
2022-09-02T18:34:03.210Z,19.88
2022-09-02T18:39:36.910Z,19.74
2022-09-02T18:45:25.218Z,19.53
2022-09-02T18:55:54.095Z,19.23
2022-09-02T19:00:59.824Z,19.03
2022-09-02T19:06:02.611Z,18.80
2022-09-02T19:11:13.800Z,18.50
2022-09-02T19:16:38.036Z,18.53
2022-09-02T19:22:01.168Z,18.45
2022-09-02T19:27:06.697Z,18.29
2022-09-02T19:32:08.351Z,18.13
2022-09-02T19:37:13.028Z,18.14
2022-09-02T19:42:14.556Z,17.75
2022-09-02T19:52:42.467Z,17.82
2022-09-02T19:57:44.856Z,17.66
2022-09-02T20:02:46.323Z,17.46
2022-09-02T20:07:47.802Z,17.47
2022-09-02T20:12:49.252Z,17.28
2022-09-02T20:17:50.690Z,17.24
2022-09-02T20:22:53.923Z,17.12
2022-09-02T20:28:14.107Z,17.07
2022-09-02T20:33:17.712Z,17.13
2022-09-02T20:38:37.364Z,17.01
2022-09-02T20:44:13.528Z,17.08
2022-09-02T20:49:23.838Z,16.91
2022-09-02T20:55:03.713Z,16.87
2022-09-02T21:00:06.747Z,16.70
2022-09-02T21:05:22.484Z,16.73
2022-09-02T21:10:32.029Z,16.66
2022-09-02T21:15:41.638Z,16.60
2022-09-02T21:20:58.520Z,16.48
2022-09-02T21:26:19.284Z,16.53
2022-09-02T21:31:31.422Z,16.44
2022-09-02T21:36:34.624Z,16.24
2022-09-02T21:41:39.636Z,16.04
2022-09-02T21:46:44.048Z,16.16
2022-09-02T21:52:02.064Z,16.17
2022-09-02T21:57:29.816Z,16.00
2022-09-02T22:03:09.144Z,16.04
2022-09-02T22:08:43.236Z,15.75
2022-09-02T22:13:45.224Z,15.81
2022-09-02T22:18:50.596Z,15.84
2022-09-02T22:23:52.420Z,15.69
2022-09-02T22:29:01.266Z,15.78
2022-09-02T22:34:07.290Z,15.43
2022-09-02T22:39:12.626Z,15.58
2022-09-02T22:44:29.091Z,15.56
2022-09-02T22:49:37.689Z,15.46
2022-09-02T22:54:39.179Z,15.45
2022-09-02T22:59:58.040Z,15.44
2022-09-02T23:05:18.875Z,15.19
2022-09-02T23:10:23.817Z,15.09
2022-09-02T23:16:02.598Z,14.90
2022-09-02T23:21:13.096Z,14.99
2022-09-02T23:26:37.041Z,15.16
2022-09-02T23:32:10.885Z,15.32
2022-09-02T23:37:58.536Z,15.20
2022-09-02T23:43:00.299Z,15.13
2022-09-02T23:48:43.628Z,14.89
2022-09-02T23:54:16.939Z,14.95
2022-09-02T23:59:36.479Z,15.03
